createdAt,value
2023-05-24T00:02:32.392Z,0.60
2023-05-24T00:07:36.356Z,0.60
2023-05-24T00:12:41.355Z,0.40
2023-05-24T00:17:44.966Z,0.47
2023-05-24T00:22:48.509Z,0.50
2023-05-24T00:27:53.467Z,0.40
2023-05-24T00:32:57.026Z,0.43
2023-05-24T00:38:00.701Z,0.50
2023-05-24T00:43:05.617Z,0.40
2023-05-24T00:48:09.300Z,0.40
2023-05-24T00:53:13.189Z,0.40
2023-05-24T00:58:18.529Z,0.40
2023-05-24T01:03:22.493Z,0.57
2023-05-24T01:08:56.160Z,0.50
2023-05-24T01:14:10.040Z,0.57
2023-05-24T01:19:48.084Z,0.53
2023-05-24T01:25:02.188Z,0.70
2023-05-24T01:30:09.117Z,0.53
2023-05-24T01:35:12.689Z,0.50
2023-05-24T01:40:16.523Z,0.50
2023-05-24T01:45:28.028Z,0.50
2023-05-24T01:50:36.554Z,0.53
2023-05-24T01:55:40.457Z,0.30
2023-05-24T02:00:46.378Z,0.50
2023-05-24T02:05:50.234Z,0.30
2023-05-24T02:10:53.779Z,0.60
2023-05-24T02:15:58.711Z,0.40
2023-05-24T02:21:03.139Z,0.40
2023-05-24T02:26:06.735Z,0.30
2023-05-24T02:31:11.743Z,0.47
2023-05-24T02:36:15.693Z,0.40
2023-05-24T02:41:19.630Z,0.40
2023-05-24T02:46:24.575Z,0.40
2023-05-24T02:51:28.279Z,0.50
2023-05-24T02:56:31.874Z,0.50
2023-05-24T03:01:36.825Z,0.50
2023-05-24T03:06:40.870Z,0.60
2023-05-24T03:11:45.314Z,0.70
2023-05-24T03:16:50.285Z,0.60
2023-05-24T03:21:54.290Z,0.50
2023-05-24T03:26:57.866Z,0.60
2023-05-24T03:32:03.230Z,0.63
2023-05-24T03:37:06.955Z,0.50
2023-05-24T03:42:11.961Z,0.50
2023-05-24T03:47:17.091Z,0.50
2023-05-24T03:52:20.730Z,0.50
2023-05-24T03:57:24.371Z,0.40
2023-05-24T04:02:30.850Z,0.40
2023-05-24T04:07:34.423Z,0.50
2023-05-24T04:12:38.048Z,0.50
2023-05-24T04:17:46.258Z,0.50
2023-05-24T04:22:49.966Z,0.40
2023-05-24T04:27:53.652Z,0.60
2023-05-24T04:32:58.782Z,0.50
2023-05-24T04:38:03.805Z,0.70
2023-05-24T04:43:07.592Z,0.70
2023-05-24T04:48:12.537Z,0.77
2023-05-24T04:53:16.077Z,0.70
2023-05-24T04:58:20.118Z,0.60
2023-05-24T05:03:25.097Z,0.80
2023-05-24T05:08:28.685Z,0.80
2023-05-24T05:13:32.280Z,0.80
2023-05-24T05:18:37.197Z,0.77
2023-05-24T05:23:40.738Z,0.73
2023-05-24T05:28:44.311Z,1.00
2023-05-24T05:33:49.352Z,0.67
2023-05-24T05:38:54.528Z,0.80
2023-05-24T05:43:58.074Z,1.07
2023-05-24T05:49:02.941Z,1.00
2023-05-24T05:54:06.701Z,1.00
2023-05-24T05:59:10.200Z,1.20
2023-05-24T06:04:15.157Z,0.90
2023-05-24T06:09:20.003Z,0.87
2023-05-24T06:14:25.098Z,1.00
2023-05-24T06:19:30.142Z,1.10
2023-05-24T06:24:34.919Z,1.10
2023-05-24T06:29:38.572Z,1.27
2023-05-24T06:34:43.576Z,1.23
2023-05-24T06:39:47.282Z,1.37
2023-05-24T06:44:50.806Z,1.40
2023-05-24T06:49:56.987Z,1.40
2023-05-24T06:55:00.571Z,1.20
2023-05-24T07:00:08.752Z,1.73
2023-05-24T07:05:13.761Z,1.10
2023-05-24T07:10:17.343Z,1.40
2023-05-24T07:15:20.863Z,1.30
2023-05-24T07:20:25.925Z,1.83
2023-05-24T07:25:29.546Z,1.70
2023-05-24T07:30:33.181Z,1.33
2023-05-24T07:35:38.542Z,1.03
2023-05-24T07:40:42.403Z,1.93
2023-05-24T07:45:46.328Z,1.30
2023-05-24T07:50:52.656Z,1.40
2023-05-24T07:55:56.640Z,1.80
2023-05-24T08:01:00.314Z,1.43
2023-05-24T08:06:05.567Z,1.40
2023-05-24T08:11:09.090Z,0.83
2023-05-24T08:16:12.712Z,0.90
2023-05-24T08:21:17.743Z,0.93
2023-05-24T08:26:22.152Z,0.83
2023-05-24T08:31:26.111Z,1.07
2023-05-24T08:36:31.521Z,1.07
2023-05-24T08:41:37.416Z,0.97
2023-05-24T08:46:41.836Z,0.97
2023-05-24T08:51:47.481Z,1.20
2023-05-24T08:56:52.546Z,0.93
2023-05-24T09:01:58.670Z,0.97
2023-05-24T09:07:04.072Z,0.70
2023-05-24T09:12:08.623Z,0.80
2023-05-24T09:17:15.704Z,1.00
2023-05-24T09:22:25.804Z,1.07
2023-05-24T09:27:30.131Z,1.10
2023-05-24T09:32:34.290Z,0.90
2023-05-24T09:37:40.379Z,0.97
2023-05-24T09:42:44.045Z,0.80
2023-05-24T09:47:48.323Z,0.80
2023-05-24T09:52:54.277Z,1.03
2023-05-24T09:58:04.809Z,1.07
2023-05-24T10:03:10.919Z,1.00
2023-05-24T10:08:18.356Z,1.00
2023-05-24T10:13:24.412Z,1.07
2023-05-24T10:18:27.970Z,0.97
2023-05-24T10:23:33.604Z,1.23
2023-05-24T10:28:41.232Z,1.00
2023-05-24T10:33:48.340Z,1.40
2023-05-24T10:38:53.733Z,0.90
2023-05-24T10:44:09.503Z,1.13
2023-05-24T10:49:15.138Z,1.30
2023-05-24T10:54:21.487Z,1.03
2023-05-24T10:59:29.732Z,0.83
2023-05-24T11:04:35.191Z,0.70
2023-05-24T11:09:45.987Z,0.93
2023-05-24T11:14:52.120Z,1.07
2023-05-24T11:19:56.758Z,1.13
2023-05-24T11:25:06.033Z,1.10
2023-05-24T11:30:12.390Z,1.00
2023-05-24T11:35:16.089Z,1.10
2023-05-24T11:40:21.248Z,1.00
2023-05-24T11:45:24.952Z,1.27
2023-05-24T11:50:28.789Z,1.20
2023-05-24T11:55:33.968Z,0.97
2023-05-24T12:00:38.069Z,0.80
2023-05-24T12:05:42.422Z,1.03
2023-05-24T12:10:50.712Z,0.80
2023-05-24T12:15:56.878Z,1.10
2023-05-24T12:21:00.683Z,0.90
2023-05-24T12:26:06.259Z,0.80
2023-05-24T12:31:10.897Z,0.90
2023-05-24T12:36:15.075Z,0.90
2023-05-24T12:41:20.089Z,1.40
2023-05-24T12:46:23.683Z,1.13
2023-05-24T12:51:27.296Z,0.93
2023-05-24T12:56:32.214Z,1.10
2023-05-24T13:01:36.110Z,1.20
2023-05-24T13:06:39.907Z,1.20
2023-05-24T13:11:45.377Z,1.33
2023-05-24T13:16:49.346Z,1.30
2023-05-24T13:21:53.085Z,1.60
2023-05-24T13:26:58.025Z,1.03
2023-05-24T13:32:01.702Z,0.77
2023-05-24T13:37:05.282Z,1.30
2023-05-24T13:42:10.600Z,1.20
2023-05-24T13:47:23.833Z,1.20
2023-05-24T13:52:35.302Z,0.90
2023-05-24T13:57:51.286Z,1.00
2023-05-24T14:02:56.230Z,1.10
2023-05-24T14:08:06.191Z,1.20
2023-05-24T14:13:41.147Z,1.00
2023-05-24T14:18:34.649Z,1.70
2023-05-24T14:23:38.207Z,1.60
2023-05-24T14:28:43.070Z,1.40
2023-05-24T14:33:46.763Z,1.03
2023-05-24T14:38:50.303Z,0.90
2023-05-24T14:43:55.264Z,1.43
2023-05-24T14:48:58.815Z,1.10
2023-05-24T14:54:02.416Z,1.03
2023-05-24T14:59:07.449Z,1.20
2023-05-24T15:04:10.965Z,1.47
2023-05-24T15:09:14.570Z,1.50
2023-05-24T15:14:19.532Z,1.43
2023-05-24T15:19:23.106Z,1.10
2023-05-24T15:24:26.709Z,1.30
2023-05-24T15:29:31.627Z,1.63
2023-05-24T15:34:35.204Z,1.37
2023-05-24T15:39:38.698Z,1.30
2023-05-24T15:44:44.019Z,0.90
2023-05-24T15:49:48.385Z,1.10
2023-05-24T15:54:51.922Z,1.30
2023-05-24T15:59:56.783Z,1.40
2023-05-24T16:05:00.597Z,0.97
2023-05-24T16:10:04.385Z,0.90
2023-05-24T16:15:11.144Z,0.83
2023-05-24T16:20:14.768Z,1.10
2023-05-24T16:25:18.625Z,0.90
2023-05-24T16:30:23.623Z,1.20
2023-05-24T16:35:27.183Z,1.30
2023-05-24T16:40:30.716Z,0.90
2023-05-24T16:45:35.708Z,1.10
2023-05-24T16:50:39.276Z,1.40
2023-05-24T16:55:42.828Z,1.60
2023-05-24T17:00:47.965Z,1.70
2023-05-24T17:05:53.158Z,1.30
2023-05-24T17:10:57.178Z,1.20
2023-05-24T17:16:03.555Z,1.07
2023-05-24T17:21:07.703Z,1.33
2023-05-24T17:26:14.689Z,1.50
2023-05-24T17:31:19.851Z,1.30
2023-05-24T17:36:23.421Z,0.90
2023-05-24T17:41:26.946Z,0.97
2023-05-24T17:46:35.765Z,1.10
2023-05-24T17:51:42.370Z,1.50
2023-05-24T17:56:46.034Z,1.47
2023-05-24T18:01:52.253Z,0.97
2023-05-24T18:06:56.564Z,1.10
2023-05-24T18:12:00.162Z,1.00
2023-05-24T18:17:05.570Z,1.00
2023-05-24T18:22:14.617Z,0.90
2023-05-24T18:27:18.216Z,1.00
2023-05-24T18:32:23.396Z,1.17
2023-05-24T18:37:26.982Z,1.00
2023-05-24T18:42:30.507Z,1.10
2023-05-24T18:47:35.739Z,1.00
2023-05-24T18:52:39.338Z,1.03
2023-05-24T18:57:42.825Z,0.70
2023-05-24T19:02:47.875Z,0.80
2023-05-24T19:07:51.483Z,0.73
2023-05-24T19:12:55.156Z,0.90
2023-05-24T19:18:00.185Z,0.70
2023-05-24T19:23:03.887Z,0.70
2023-05-24T19:28:08.186Z,0.80
2023-05-24T19:33:13.089Z,0.70
2023-05-24T19:38:17.713Z,0.77
2023-05-24T19:43:21.720Z,0.90
2023-05-24T19:48:27.064Z,0.80
2023-05-24T19:53:30.996Z,0.80
2023-05-24T19:58:34.595Z,0.77
2023-05-24T20:03:39.699Z,0.63
2023-05-24T20:08:43.544Z,1.17
2023-05-24T20:13:47.313Z,0.93
2023-05-24T20:18:52.276Z,0.70
2023-05-24T20:23:58.812Z,0.80
2023-05-24T20:29:02.894Z,0.70
2023-05-24T20:34:07.814Z,0.60
2023-05-24T20:39:11.632Z,0.83
2023-05-24T20:44:15.342Z,0.77
2023-05-24T20:49:20.535Z,0.60
2023-05-24T20:54:24.213Z,0.70
2023-05-24T20:59:27.986Z,0.47
2023-05-24T21:04:33.031Z,0.90
2023-05-24T21:09:36.571Z,0.90
2023-05-24T21:14:40.377Z,0.90
2023-05-24T21:19:45.365Z,1.00
2023-05-24T21:24:49.035Z,0.90
2023-05-24T21:29:52.574Z,0.93
2023-05-24T21:34:57.495Z,0.90
2023-05-24T21:40:01.024Z,1.23
2023-05-24T21:45:04.945Z,1.17
2023-05-24T21:50:11.233Z,0.80
2023-05-24T21:55:14.912Z,0.73
2023-05-24T22:00:19.903Z,0.70
2023-05-24T22:05:27.512Z,0.90
2023-05-24T22:10:31.390Z,0.80
2023-05-24T22:15:34.937Z,0.80
2023-05-24T22:20:39.933Z,1.10
2023-05-24T22:25:44.713Z,1.00
2023-05-24T22:30:48.736Z,1.23
2023-05-24T22:35:53.998Z,0.90
2023-05-24T22:40:57.580Z,1.30
2023-05-24T22:46:01.214Z,1.40
2023-05-24T22:51:06.572Z,1.30
2023-05-24T22:56:10.426Z,0.90
2023-05-24T23:01:14.527Z,1.10
2023-05-24T23:06:21.071Z,1.40
2023-05-24T23:11:26.546Z,1.57
2023-05-24T23:16:31.548Z,1.40
2023-05-24T23:21:37.988Z,1.30
2023-05-24T23:26:41.779Z,1.30
2023-05-24T23:31:45.552Z,1.30
2023-05-24T23:36:50.843Z,1.20
2023-05-24T23:41:54.593Z,1.10
2023-05-24T23:46:58.633Z,1.00
2023-05-24T23:52:03.700Z,0.90
2023-05-24T23:57:08.151Z,0.80
